Time;durP1;ratioP1;P1;durP2;ratioP2;P2;SDS_P1;SDS_P2;PMS_P1;PMS_P2;Temp;Humidity;BMP_temperature;BMP_pressure;BME280_temperature;BME280_humidity;BME280_pressure;Samples;Min_cycle;Max_cycle;Signal;HPM_P1;HPM_P2
2023/08/02 00:00:27;;;;;;;5.85;3.65;;;;;;;17.27;72.12;97550.56;5045356;28;20146;-82
2023/08/02 00:02:53;;;;;;;3.67;2.67;;;;;;;17.25;71.75;97550.91;5026027;28;20426;-81
2023/08/02 00:05:19;;;;;;;9.32;3.67;;;;;;;17.25;71.95;97545.50;5029753;28;20029;-81
2023/08/02 00:07:44;;;;;;;6.32;2.70;;;;;;;17.32;71.96;97567.34;5027304;28;20057;-81
2023/08/02 00:10:10;;;;;;;6.68;3.15;;;;;;;17.27;71.39;97554.06;5028281;28;20033;-81
2023/08/02 00:12:35;;;;;;;4.55;2.60;;;;;;;17.13;71.92;97558.84;5009741;28;20580;-81
2023/08/02 00:15:00;;;;;;;7.38;3.00;;;;;;;17.04;72.52;97545.41;5025505;28;20048;-81
2023/08/02 00:17:26;;;;;;;5.95;3.28;;;;;;;17.04;72.64;97566.16;5028343;28;20031;-81
2023/08/02 00:19:51;;;;;;;8.35;2.97;;;;;;;17.06;72.74;97551.25;5011318;28;20022;-81
2023/08/02 00:22:16;;;;;;;4.25;3.15;;;;;;;16.94;72.34;97558.44;5010870;28;20073;-82
2023/08/02 00:24:42;;;;;;;4.68;2.92;;;;;;;16.98;72.53;97562.88;5012345;28;20030;-81
2023/08/02 00:27:07;;;;;;;5.07;2.80;;;;;;;16.94;72.38;97555.75;5028358;28;20128;-81
2023/08/02 00:29:32;;;;;;;2.90;2.65;;;;;;;17.06;72.49;97559.34;5026328;28;20694;-81
2023/08/02 00:31:58;;;;;;;6.70;2.95;;;;;;;16.97;72.43;97560.50;5041157;28;20083;-80
2023/08/02 00:34:23;;;;;;;5.70;2.67;;;;;;;17.00;72.47;97554.44;5027040;28;20030;-81
2023/08/02 00:36:48;;;;;;;3.95;2.60;;;;;;;17.01;72.20;97564.13;5027681;28;20036;-81
2023/08/02 00:39:14;;;;;;;5.03;2.55;;;;;;;17.06;71.90;97555.84;5029171;28;20417;-81
2023/08/02 00:41:39;;;;;;;5.45;3.00;;;;;;;17.05;71.96;97556.97;4993168;28;20026;-81
2023/08/02 00:44:05;;;;;;;5.57;2.83;;;;;;;17.01;71.92;97559.53;5028846;28;20030;-81
2023/08/02 00:46:30;;;;;;;4.38;2.55;;;;;;;17.04;71.68;97555.38;5026765;28;20528;-80
2023/08/02 00:48:55;;;;;;;4.68;3.08;;;;;;;17.03;71.64;97564.59;4996152;28;20037;-81
2023/08/02 00:51:21;;;;;;;7.90;2.35;;;;;;;17.02;71.70;97563.81;5027666;28;20038;-81
2023/08/02 00:53:46;;;;;;;10.55;3.05;;;;;;;16.96;71.94;97556.22;5028369;28;20424;-81
2023/08/02 00:56:14;;;;;;;6.82;2.50;;;;;;;16.86;71.95;97549.25;5028575;28;20478;-80
2023/08/02 00:58:40;;;;;;;4.05;2.83;;;;;;;16.87;71.49;97544.66;5028385;28;20053;-81
2023/08/02 01:01:08;;;;;;;8.65;3.00;;;;;;;16.80;71.86;97552.44;5023430;28;20072;-81
2023/08/02 01:03:40;;;;;;;6.72;2.85;;;;;;;16.81;71.79;97554.03;5026921;28;20551;-81
2023/08/02 01:06:22;;;;;;;10.95;2.67;;;;;;;16.74;72.03;97545.63;5027848;28;20057;-81
2023/08/02 01:09:03;;;;;;;5.50;3.13;;;;;;;16.64;72.22;97543.28;5027738;28;20076;-81
2023/08/02 01:11:44;;;;;;;5.60;2.70;;;;;;;16.62;71.71;97532.78;5019414;28;20040;-80
2023/08/02 01:14:12;;;;;;;5.20;2.88;;;;;;;16.59;72.39;97525.38;5019927;28;20044;-81
2023/08/02 01:16:39;;;;;;;5.15;2.80;;;;;;;16.67;72.62;97534.53;5024815;28;20029;-81
2023/08/02 01:19:11;;;;;;;5.13;2.63;;;;;;;16.63;72.21;97534.38;5025971;28;20048;-81
2023/08/02 01:21:36;;;;;;;9.95;2.50;;;;;;;16.56;72.23;97519.81;5028396;28;20057;-80
2023/08/02 01:24:03;;;;;;;6.93;2.50;;;;;;;16.56;72.06;97525.19;5026005;28;20064;-81
2023/08/02 01:26:30;;;;;;;8.80;2.78;;;;;;;16.55;72.82;97523.63;5029714;28;20041;-81
2023/08/02 01:29:01;;;;;;;4.07;2.90;;;;;;;16.64;71.85;97524.41;5030980;28;20032;-81
2023/08/02 01:31:28;;;;;;;5.40;2.60;;;;;;;16.53;71.80;97505.09;5025097;28;20076;-81
2023/08/02 01:33:56;;;;;;;6.85;2.75;;;;;;;16.39;72.25;97488.28;5028406;28;20026;-81
2023/08/02 01:36:22;;;;;;;3.95;2.63;;;;;;;16.52;72.67;97508.88;5028387;28;20120;-81
2023/08/02 01:38:48;;;;;;;4.45;2.70;;;;;;;16.44;72.96;97510.47;5028831;28;20068;-81
2023/08/02 01:41:13;;;;;;;5.20;3.17;;;;;;;16.55;72.37;97512.84;5015214;28;20461;-81
2023/08/02 01:43:38;;;;;;;9.10;3.72;;;;;;;16.54;72.82;97501.28;5031403;28;20040;-81
2023/08/02 01:46:04;;;;;;;7.65;3.30;;;;;;;16.50;72.21;97497.66;5030981;28;20025;-80
2023/08/02 01:48:29;;;;;;;9.10;3.40;;;;;;;16.47;72.60;97496.34;5014172;28;20048;-81
2023/08/02 01:50:55;;;;;;;5.80;2.67;;;;;;;16.52;72.01;97500.00;4995036;28;20478;-81
2023/08/02 01:53:21;;;;;;;5.10;3.10;;;;;;;16.32;72.97;97488.75;5029674;28;20408;-81
2023/08/02 01:55:46;;;;;;;5.93;2.33;;;;;;;16.41;73.13;97511.09;4997582;28;20025;-81
2023/08/02 01:58:11;;;;;;;6.47;3.10;;;;;;;16.43;72.97;97500.78;5032147;28;20061;-81
2023/08/02 02:00:37;;;;;;;4.80;2.92;;;;;;;16.37;73.26;97491.31;5030807;28;20036;-81
2023/08/02 02:03:02;;;;;;;4.75;3.00;;;;;;;16.32;73.14;97480.69;5030455;28;20021;-81
2023/08/02 02:05:27;;;;;;;6.55;2.58;;;;;;;16.27;72.94;97480.84;4999976;28;20424;-81
2023/08/02 02:07:53;;;;;;;4.78;2.85;;;;;;;16.14;73.69;97478.34;5031507;28;20104;-81
2023/08/02 02:10:18;;;;;;;6.07;3.00;;;;;;;16.22;73.93;97497.19;5032425;28;20045;-81
2023/08/02 02:12:44;;;;;;;7.80;2.58;;;;;;;16.30;73.69;97493.69;5028198;28;20211;-81
2023/08/02 02:15:10;;;;;;;6.53;2.78;;;;;;;16.27;73.53;97483.53;5032057;28;20180;-81
2023/08/02 02:17:35;;;;;;;7.65;3.17;;;;;;;16.36;73.50;97480.81;5030713;28;20112;-81
2023/08/02 02:20:01;;;;;;;7.47;2.70;;;;;;;16.30;73.11;97482.09;5016051;28;20032;-81
2023/08/02 02:22:26;;;;;;;6.03;2.67;;;;;;;16.38;73.26;97484.03;5030974;28;20059;-81
2023/08/02 02:24:53;;;;;;;7.22;2.88;;;;;;;16.34;73.16;97483.06;5032641;28;20061;-81
2023/08/02 02:27:18;;;;;;;5.20;2.53;;;;;;;16.22;73.18;97472.16;5016286;28;20079;-81
2023/08/02 02:29:44;;;;;;;4.15;2.80;;;;;;;16.27;73.36;97480.06;5014161;28;20402;-81
2023/08/02 02:32:09;;;;;;;3.38;2.63;;;;;;;16.29;73.33;97489.38;5015766;28;20051;-80
2023/08/02 02:34:34;;;;;;;6.18;3.05;;;;;;;16.16;74.05;97476.88;5032267;28;20037;-81
2023/08/02 02:37:00;;;;;;;7.78;3.15;;;;;;;16.04;74.06;97474.06;5012020;28;20026;-81
2023/08/02 02:39:25;;;;;;;4.30;2.67;;;;;;;16.14;74.14;97470.25;5032368;28;20032;-81
2023/08/02 02:41:50;;;;;;;7.38;3.33;;;;;;;16.24;74.05;97478.81;4998322;28;20130;-81
2023/08/02 02:44:16;;;;;;;9.20;3.28;;;;;;;16.03;74.26;97458.22;5030347;28;20060;-81
2023/08/02 02:46:41;;;;;;;9.25;2.78;;;;;;;16.07;74.48;97478.00;5031923;28;20432;-81
2023/08/02 02:49:07;;;;;;;5.22;2.38;;;;;;;16.10;74.53;97472.78;5012761;28;20041;-80
2023/08/02 02:51:32;;;;;;;6.13;3.05;;;;;;;16.09;74.19;97473.91;5031659;28;20416;-81
2023/08/02 02:53:57;;;;;;;7.60;3.25;;;;;;;16.10;74.86;97467.41;5031596;28;20037;-81
2023/08/02 02:56:22;;;;;;;5.15;2.60;;;;;;;16.11;74.76;97449.34;5032201;28;20025;-81
2023/08/02 02:58:48;;;;;;;5.43;2.53;;;;;;;16.19;74.55;97464.69;5022830;28;20079;-81
2023/08/02 03:01:14;;;;;;;5.38;2.47;;;;;;;16.21;74.79;97471.34;5029898;28;20111;-81
2023/08/02 03:03:39;;;;;;;4.57;2.28;;;;;;;16.12;74.34;97454.41;5028962;28;20041;-81
2023/08/02 03:06:04;;;;;;;5.90;2.67;;;;;;;16.04;75.46;97462.47;5013189;28;20030;-81
2023/08/02 03:08:30;;;;;;;8.25;3.08;;;;;;;16.15;74.76;97453.78;5025224;28;20041;-80
2023/08/02 03:10:55;;;;;;;4.07;2.50;;;;;;;16.05;75.67;97443.34;5013645;28;20039;-81
2023/08/02 03:13:21;;;;;;;4.95;2.28;;;;;;;16.06;75.26;97436.03;5031441;28;20064;-81
2023/08/02 03:15:48;;;;;;;5.07;2.60;;;;;;;16.05;75.33;97429.88;5028777;28;20037;-81
2023/08/02 03:18:13;;;;;;;5.50;2.33;;;;;;;16.05;75.63;97443.34;5028643;28;20026;-81
2023/08/02 03:20:39;;;;;;;6.43;3.17;;;;;;;16.20;75.27;97445.56;5028232;28;20026;-80
2023/08/02 03:23:05;;;;;;;6.65;3.10;;;;;;;16.00;76.04;97430.03;5030096;28;20116;-81
2023/08/02 03:25:30;;;;;;;5.03;2.40;;;;;;;16.09;76.17;97428.13;5028647;28;20163;-81
2023/08/02 03:27:56;;;;;;;6.72;2.65;;;;;;;16.30;75.41;97445.22;5028647;28;20697;-81
2023/08/02 03:30:21;;;;;;;5.03;2.35;;;;;;;16.26;75.53;97452.34;5028587;28;20033;-81
2023/08/02 03:32:46;;;;;;;4.22;2.03;;;;;;;16.03;76.54;97452.84;5030085;28;20095;-81
2023/08/02 03:35:12;;;;;;;5.40;2.83;;;;;;;16.12;76.32;97438.25;5028131;28;20041;-81
2023/08/02 03:37:37;;;;;;;6.80;2.53;;;;;;;16.29;75.64;97442.84;5028812;28;20112;-81
2023/08/02 03:40:03;;;;;;;5.05;2.10;;;;;;;16.17;76.44;97435.41;5025500;28;20129;-80
2023/08/02 03:42:28;;;;;;;5.20;2.65;;;;;;;16.27;75.83;97448.53;5027867;28;20048;-81
2023/08/02 03:44:53;;;;;;;8.35;2.42;;;;;;;16.20;75.99;97450.13;5027282;28;20048;-81
2023/08/02 03:47:19;;;;;;;7.43;2.55;;;;;;;16.27;76.02;97448.53;5024504;28;20033;-81
2023/08/02 03:49:44;;;;;;;6.65;2.83;;;;;;;15.98;77.10;97426.09;5025078;28;20067;-81
2023/08/02 03:52:10;;;;;;;6.07;2.63;;;;;;;15.95;76.96;97418.63;5027267;28;20068;-81
2023/08/02 03:54:35;;;;;;;7.45;1.80;;;;;;;16.14;76.35;97435.25;5024971;28;20417;-81
2023/08/02 03:57:00;;;;;;;7.30;2.10;;;;;;;16.25;75.83;97431.91;5027793;28;20041;-82
2023/08/02 03:59:26;;;;;;;4.57;2.33;;;;;;;16.05;76.93;97421.00;5028972;28;20036;-80
2023/08/02 04:01:51;;;;;;;4.97;2.17;;;;;;;16.09;76.16;97414.69;4990089;28;20413;-81
2023/08/02 04:04:16;;;;;;;6.00;1.80;;;;;;;16.27;76.16;97416.22;5027700;28;20037;-81
2023/08/02 04:06:42;;;;;;;5.93;2.00;;;;;;;16.14;76.43;97422.56;4995652;28;20119;-81
2023/08/02 04:09:07;;;;;;;2.80;2.15;;;;;;;16.21;76.05;97409.44;5012077;28;20378;-81
2023/08/02 04:11:32;;;;;;;2.88;2.03;;;;;;;16.26;76.15;97425.41;5021845;28;20044;-80
2023/08/02 04:13:58;;;;;;;6.75;2.10;;;;;;;16.30;76.00;97420.97;4994148;28;20026;-81
2023/08/02 04:16:23;;;;;;;7.78;2.50;;;;;;;16.28;76.13;97423.19;5028422;28;20115;-81
2023/08/02 04:18:48;;;;;;;3.33;2.17;;;;;;;16.14;76.65;97414.50;5011914;28;20053;-81
2023/08/02 04:21:19;;;;;;;2.92;1.98;;;;;;;16.28;76.40;97428.59;4994313;28;20037;-81
2023/08/02 04:23:44;;;;;;;4.97;2.10;;;;;;;15.98;76.80;97410.72;5027317;28;20120;-81
2023/08/02 04:26:10;;;;;;;4.70;2.55;;;;;;;16.13;76.50;97418.31;5028657;28;20036;-81
2023/08/02 04:28:36;;;;;;;13.27;2.83;;;;;;;16.17;76.50;97416.56;5028079;28;20112;-80
2023/08/02 04:31:02;;;;;;;8.55;2.90;;;;;;;16.32;76.87;97416.06;5028624;28;20033;-81
2023/08/02 04:33:27;;;;;;;2.85;1.98;;;;;;;16.11;77.11;97390.94;5027861;28;20109;-81
2023/08/02 04:35:53;;;;;;;3.00;1.85;;;;;;;16.34;76.18;97389.59;5026896;28;20572;-81
2023/08/02 04:38:18;;;;;;;6.25;2.40;;;;;;;16.14;76.63;97370.66;5011315;28;20033;-81
2023/08/02 04:40:45;;;;;;;3.53;2.20;;;;;;;16.37;76.51;97380.09;5011388;28;20047;-81
2023/08/02 04:43:11;;;;;;;6.43;2.05;;;;;;;16.45;76.61;97382.75;5016370;28;20095;-81
2023/08/02 04:45:36;;;;;;;2.08;1.80;;;;;;;16.50;76.39;97384.53;5029092;28;20033;-81
2023/08/02 04:48:01;;;;;;;3.92;2.10;;;;;;;16.35;76.38;97375.03;5027769;28;20033;-81
2023/08/02 04:50:27;;;;;;;2.72;1.73;;;;;;;16.46;76.39;97368.19;5011013;28;20116;-81
2023/08/02 04:52:52;;;;;;;4.72;2.30;;;;;;;16.43;76.30;97360.75;4995404;28;20064;-81
2023/08/02 04:55:17;;;;;;;7.53;2.08;;;;;;;16.65;75.81;97364.34;5003622;28;20068;-81
2023/08/02 04:57:43;;;;;;;6.63;2.20;;;;;;;16.49;76.43;97364.84;5024912;28;20053;-82
2023/08/02 05:00:08;;;;;;;7.78;2.17;;;;;;;16.21;78.67;97358.28;5009383;28;20057;-82
2023/08/02 05:02:36;;;;;;;5.00;2.30;;;;;;;16.18;79.17;97366.22;5045967;28;20033;-81
2023/08/02 05:05:02;;;;;;;4.15;2.40;;;;;;;16.15;78.54;97367.63;5031362;28;20029;-82
2023/08/02 05:07:31;;;;;;;3.60;1.70;;;;;;;16.15;79.08;97361.47;5030807;28;20039;-81
2023/08/02 05:09:57;;;;;;;4.60;2.40;;;;;;;16.09;79.29;97350.09;5031186;28;20449;-81
2023/08/02 05:12:23;;;;;;;6.20;3.13;;;;;;;16.18;78.71;97350.84;5031558;28;20116;-81
2023/08/02 05:14:48;;;;;;;5.65;2.28;;;;;;;16.26;77.96;97338.47;5026972;28;20108;-83
2023/08/02 05:17:13;;;;;;;7.40;2.53;;;;;;;16.03;79.92;97326.34;5015417;28;20072;-83
2023/08/02 05:19:39;;;;;;;9.50;2.40;;;;;;;16.24;78.28;97319.94;5030477;28;20037;-83
2023/08/02 05:22:04;;;;;;;6.20;2.50;;;;;;;16.01;80.08;97334.72;5014201;28;20412;-84
2023/08/02 05:24:30;;;;;;;4.03;2.20;;;;;;;16.22;78.99;97335.63;5032056;28;20508;-83
2023/08/02 05:26:55;;;;;;;5.93;2.50;;;;;;;16.23;78.15;97328.31;5030509;28;20083;-84
2023/08/02 05:29:20;;;;;;;5.75;2.38;;;;;;;16.41;77.53;97336.03;5014524;28;20052;-84
2023/08/02 05:31:46;;;;;;;3.05;2.10;;;;;;;16.45;78.05;97334.28;5029735;28;20030;-83
2023/08/02 05:34:11;;;;;;;5.20;2.25;;;;;;;16.51;77.32;97321.47;5026515;28;20083;-83
2023/08/02 05:36:37;;;;;;;4.45;2.33;;;;;;;16.61;76.84;97331.06;5028334;28;20029;-83
2023/08/02 05:39:02;;;;;;;4.15;2.22;;;;;;;16.73;77.09;97326.56;5044406;28;20030;-83
2023/08/02 05:41:28;;;;;;;5.90;2.35;;;;;;;16.77;76.81;97324.84;5029595;28;20048;-83
2023/08/02 05:43:53;;;;;;;3.75;2.08;;;;;;;16.72;76.71;97311.53;5030329;28;20037;-83
2023/08/02 05:46:19;;;;;;;5.63;2.60;;;;;;;16.68;76.85;97301.72;5027613;28;20033;-82
2023/08/02 05:48:44;;;;;;;5.35;2.47;;;;;;;16.67;77.35;97289.34;5044455;28;20095;-83
2023/08/02 05:51:10;;;;;;;4.32;2.40;;;;;;;16.71;76.62;97283.00;5031815;28;20076;-83
2023/08/02 05:53:35;;;;;;;5.80;2.60;;;;;;;16.64;77.42;97273.88;5031434;28;20029;-83
2023/08/02 05:56:01;;;;;;;6.60;2.45;;;;;;;16.92;76.26;97299.22;5031381;28;20026;-83
2023/08/02 05:58:26;;;;;;;6.45;2.50;;;;;;;16.93;76.15;97293.47;5029771;28;20489;-83
2023/08/02 06:00:52;;;;;;;4.68;2.55;;;;;;;16.79;77.05;97276.00;5043400;28;20064;-83
2023/08/02 06:03:17;;;;;;;5.88;2.30;;;;;;;16.74;77.37;97265.38;5042980;28;20060;-83
2023/08/02 06:05:42;;;;;;;3.08;2.50;;;;;;;16.97;76.54;97280.94;5013770;28;20041;-82
2023/08/02 06:08:08;;;;;;;6.60;2.53;;;;;;;16.81;76.75;97274.56;5031105;28;20061;-83
2023/08/02 06:10:33;;;;;;;2.95;2.38;;;;;;;17.00;76.29;97284.88;5028243;28;20048;-83
2023/08/02 06:12:58;;;;;;;2.90;2.17;;;;;;;16.95;76.58;97293.94;5027575;28;20034;-83
2023/08/02 06:15:24;;;;;;;7.28;3.05;;;;;;;16.98;76.32;97279.81;5030230;28;20025;-83
2023/08/02 06:17:49;;;;;;;3.58;2.25;;;;;;;17.02;76.00;97267.25;5008941;28;20125;-83
2023/08/02 06:20:14;;;;;;;2.90;2.00;;;;;;;17.04;76.64;97256.94;5009334;28;20034;-83
2023/08/02 06:22:40;;;;;;;5.20;2.58;;;;;;;16.94;76.84;97253.84;5026566;28;20033;-83
2023/08/02 06:25:06;;;;;;;4.35;2.40;;;;;;;17.05;76.61;97276.59;5028015;28;20171;-83
2023/08/02 06:27:32;;;;;;;5.35;2.83;;;;;;;17.05;76.47;97261.22;5025508;28;20120;-83
2023/08/02 06:29:57;;;;;;;6.47;2.58;;;;;;;17.22;75.58;97263.78;5012074;28;20044;-82
2023/08/02 06:32:23;;;;;;;3.58;2.25;;;;;;;17.35;75.64;97272.72;5030049;28;20664;-83
2023/08/02 06:34:48;;;;;;;3.30;2.15;;;;;;;17.29;75.84;97278.66;5031966;28;20115;-83
2023/08/02 06:37:13;;;;;;;5.95;2.22;;;;;;;17.29;76.59;97276.75;4995526;28;20037;-82
2023/08/02 06:39:39;;;;;;;3.38;2.17;;;;;;;17.34;75.55;97271.16;4996190;28;20033;-83
2023/08/02 06:42:05;;;;;;;4.13;2.38;;;;;;;17.31;76.36;97266.41;5043794;28;20099;-83
2023/08/02 06:44:31;;;;;;;10.88;2.78;;;;;;;17.48;75.13;97273.56;5029477;28;20044;-83
2023/08/02 06:46:56;;;;;;;7.38;2.60;;;;;;;17.47;74.64;97262.00;5029349;28;20033;-83
2023/08/02 06:49:22;;;;;;;11.60;2.67;;;;;;;17.31;76.27;97246.75;4994741;28;20025;-83
2023/08/02 06:51:47;;;;;;;7.65;2.90;;;;;;;17.43;75.22;97249.50;5046197;28;20055;-83
2023/08/02 06:54:12;;;;;;;6.00;2.70;;;;;;;17.47;75.65;97262.00;5028237;28;20049;-83
2023/08/02 06:56:38;;;;;;;7.22;2.40;;;;;;;17.37;75.77;97234.63;5026381;28;20042;-82
2023/08/02 06:59:03;;;;;;;5.95;2.30;;;;;;;17.53;76.62;97251.81;5042827;28;20124;-83
2023/08/02 07:01:28;;;;;;;6.50;2.75;;;;;;;17.49;75.80;97246.28;4995270;28;20029;-82
2023/08/02 07:03:54;;;;;;;9.88;2.80;;;;;;;17.73;75.25;97254.47;5029602;28;20061;-83
2023/08/02 07:06:21;;;;;;;5.82;2.92;;;;;;;17.63;75.65;97230.59;5030317;28;20045;-83
2023/08/02 07:08:47;;;;;;;5.97;3.13;;;;;;;17.50;77.18;97234.38;5029568;28;20441;-83
2023/08/02 07:11:13;;;;;;;7.43;3.10;;;;;;;17.57;76.34;97228.44;5029618;28;20038;-82
2023/08/02 07:13:42;;;;;;;8.13;2.70;;;;;;;17.79;74.86;97244.25;5032571;28;20507;-83
2023/08/02 07:16:07;;;;;;;7.05;2.92;;;;;;;17.67;76.27;97245.00;5029371;28;20095;-83
2023/08/02 07:18:33;;;;;;;6.60;2.90;;;;;;;17.86;75.08;97248.00;5014009;28;20033;-83
2023/08/02 07:21:06;;;;;;;6.53;2.78;;;;;;;17.74;74.82;97230.94;5014201;28;20112;-83
2023/08/02 07:23:31;;;;;;;6.18;2.80;;;;;;;17.77;75.30;97233.78;5031116;28;20033;-83
2023/08/02 07:25:56;;;;;;;5.45;2.55;;;;;;;17.87;75.38;97217.16;5009665;28;20033;-83
2023/08/02 07:28:22;;;;;;;5.65;3.10;;;;;;;17.73;76.48;97218.59;5023083;28;20025;-83
2023/08/02 07:30:47;;;;;;;3.10;2.80;;;;;;;17.68;76.22;97213.41;5029611;28;20037;-83
2023/08/02 07:33:13;;;;;;;5.57;2.80;;;;;;;17.72;75.48;97198.13;4995962;28;20080;-82
2023/08/02 07:35:38;;;;;;;5.15;3.50;;;;;;;17.73;75.36;97186.22;5029177;28;20092;-83
2023/08/02 07:38:03;;;;;;;8.70;3.17;;;;;;;17.86;75.78;97198.59;5012174;28;20116;-83
2023/08/02 07:40:29;;;;;;;7.25;3.10;;;;;;;17.81;75.46;97194.22;5030420;28;20116;-83
2023/08/02 07:42:54;;;;;;;6.18;3.20;;;;;;;17.74;75.91;97193.97;5009172;28;20064;-83
2023/08/02 07:45:20;;;;;;;5.22;3.50;;;;;;;17.94;75.58;97184.22;5044737;28;20033;-83
2023/08/02 07:47:45;;;;;;;5.60;3.90;;;;;;;17.92;75.89;97181.84;5028679;28;20083;-83
2023/08/02 07:50:11;;;;;;;5.63;3.38;;;;;;;17.97;75.53;97151.91;5031384;28;20033;-82
2023/08/02 07:52:36;;;;;;;6.80;3.53;;;;;;;17.93;75.90;97150.25;5013816;28;20033;-83
2023/08/02 07:55:02;;;;;;;6.20;3.33;;;;;;;18.01;75.47;97152.03;5028760;28;20033;-83
2023/08/02 07:57:31;;;;;;;7.05;3.78;;;;;;;18.02;76.17;97156.31;5030701;28;20480;-83
2023/08/02 07:59:57;;;;;;;4.93;2.92;;;;;;;18.21;75.52;97156.56;5031582;28;20029;-83
2023/08/02 08:02:25;;;;;;;8.05;3.72;;;;;;;18.33;74.78;97155.72;5030203;28;20688;-84
2023/08/02 08:04:51;;;;;;;14.32;3.90;;;;;;;18.27;74.82;97140.88;5029593;28;20080;-83
2023/08/02 08:07:16;;;;;;;7.15;3.42;;;;;;;18.33;74.69;97153.81;5010553;28;20354;-83
2023/08/02 08:09:44;;;;;;;10.45;3.42;;;;;;;18.38;74.35;97150.09;5028639;28;20133;-83
2023/08/02 08:12:10;;;;;;;5.15;3.05;;;;;;;18.40;73.69;97150.56;5030254;28;20076;-83
2023/08/02 08:14:36;;;;;;;5.18;3.65;;;;;;;18.39;74.06;97155.16;5012191;28;20617;-82
2023/08/02 08:17:02;;;;;;;7.22;3.60;;;;;;;18.40;74.12;97162.16;5031415;28;20163;-84
2023/08/02 08:19:28;;;;;;;6.78;3.20;;;;;;;18.42;74.20;97161.81;5025754;28;20132;-83
2023/08/02 08:21:54;;;;;;;4.30;3.05;;;;;;;18.34;74.11;97135.72;5025026;28;20017;-83
2023/08/02 08:24:19;;;;;;;5.35;3.38;;;;;;;18.30;74.37;97134.81;5026905;28;20032;-84
2023/08/02 08:26:45;;;;;;;7.15;4.13;;;;;;;18.27;75.98;97133.56;5012599;28;20034;-84
2023/08/02 08:29:10;;;;;;;5.72;4.03;;;;;;;18.23;75.08;97132.69;5027785;28;20400;-84
2023/08/02 08:31:36;;;;;;;4.28;3.78;;;;;;;18.14;76.01;97133.91;5028955;28;20087;-83
2023/08/02 08:34:02;;;;;;;5.60;3.70;;;;;;;17.90;75.75;97111.22;5027631;28;20400;-83
2023/08/02 08:36:29;;;;;;;7.85;4.47;;;;;;;17.84;77.11;97109.84;5026254;28;20093;-83
2023/08/02 08:38:55;;;;;;;4.22;3.63;;;;;;;17.61;78.31;97111.41;5022963;28;20038;-83
2023/08/02 08:41:21;;;;;;;10.35;3.88;;;;;;;17.56;79.00;97094.69;5026234;28;20038;-83
2023/08/02 08:43:46;;;;;;;6.57;4.10;;;;;;;17.50;79.32;97091.41;5024780;28;20029;-83
2023/08/02 08:46:12;;;;;;;8.93;4.85;;;;;;;17.30;81.14;97086.06;4992848;28;20034;-82
2023/08/02 08:48:38;;;;;;;7.10;4.97;;;;;;;17.54;78.42;97083.44;5026403;28;20091;-83
2023/08/02 08:51:05;;;;;;;5.55;4.15;;;;;;;17.67;79.05;97088.47;5029086;28;20013;-83
2023/08/02 08:53:36;;;;;;;4.97;4.18;;;;;;;17.53;79.08;97079.94;5026302;28;20025;-83
2023/08/02 08:56:03;;;;;;;10.25;4.47;;;;;;;17.74;78.60;97087.91;5015765;28;20043;-83
2023/08/02 08:58:31;;;;;;;5.53;3.70;;;;;;;17.75;78.58;97079.50;5040757;28;20400;-83
2023/08/02 09:00:58;;;;;;;5.72;3.92;;;;;;;17.61;79.14;97070.16;5025492;28;21748;-82
2023/08/02 09:03:24;;;;;;;6.40;3.65;;;;;;;17.49;79.23;97067.44;5037450;28;20032;-82
2023/08/02 09:05:50;;;;;;;4.35;3.10;;;;;;;17.21;81.90;97054.56;5042873;28;20029;-82
2023/08/02 09:08:16;;;;;;;6.10;4.10;;;;;;;17.31;81.11;97050.66;5008875;28;20379;-82
2023/08/02 09:10:41;;;;;;;7.60;3.90;;;;;;;17.31;82.39;97057.97;5008900;28;20061;-82
2023/08/02 09:13:20;;;;;;;9.10;4.72;;;;;;;17.23;82.16;97057.72;5026823;28;20112;-83
2023/08/02 09:15:46;;;;;;;5.05;4.18;;;;;;;17.49;81.51;97033.16;5029886;28;20025;-83
2023/08/02 09:18:11;;;;;;;5.18;3.38;;;;;;;17.39;81.11;97025.50;5012779;28;20404;-83
2023/08/02 09:20:37;;;;;;;4.75;4.32;;;;;;;17.43;80.50;97025.63;5023872;28;20049;-83
2023/08/02 09:23:14;;;;;;;4.22;3.20;;;;;;;17.58;79.94;97019.59;5040397;28;20030;-83
2023/08/02 09:25:40;;;;;;;7.05;4.45;;;;;;;17.67;80.77;97023.72;5023443;28;20060;-83
2023/08/02 09:28:11;;;;;;;5.20;3.83;;;;;;;17.60;80.99;97012.72;5044183;28;20065;-83
2023/08/02 09:30:36;;;;;;;5.78;3.90;;;;;;;17.85;79.07;97019.66;5027129;28;20405;-83
2023/08/02 09:33:04;;;;;;;4.75;3.83;;;;;;;17.85;79.98;97019.66;5026795;28;20041;-83
2023/08/02 09:35:47;;;;;;;9.45;3.95;;;;;;;17.65;81.83;97007.09;5045232;28;20064;-83
2023/08/02 09:38:13;;;;;;;6.03;3.45;;;;;;;17.79;79.76;96995.94;5029350;28;20119;-83
2023/08/02 09:40:40;;;;;;;7.80;4.28;;;;;;;17.83;79.55;96983.34;5026244;28;20429;-82
2023/08/02 09:43:08;;;;;;;10.25;4.97;;;;;;;17.70;80.73;96981.78;5010876;28;20033;-83
2023/08/02 09:45:35;;;;;;;6.90;4.38;;;;;;;17.58;81.17;96976.41;5027557;28;20537;-83
2023/08/02 09:48:01;;;;;;;5.43;4.10;;;;;;;17.62;80.58;96972.69;5031882;28;20029;-83
2023/08/02 09:50:27;;;;;;;5.35;4.22;;;;;;;17.40;81.43;96959.66;5047544;28;20034;-83
2023/08/02 09:52:53;;;;;;;9.70;4.57;;;;;;;17.51;81.29;96970.78;5033278;28;20025;-83
2023/08/02 09:55:20;;;;;;;6.85;4.50;;;;;;;17.57;80.58;96975.63;5033227;28;20041;-83
2023/08/02 09:57:46;;;;;;;7.97;4.65;;;;;;;17.59;79.99;96962.56;5033898;28;20120;-83
2023/08/02 10:00:12;;;;;;;6.80;4.38;;;;;;;17.62;80.67;96964.59;5033691;28;20124;-83
2023/08/02 10:02:38;;;;;;;7.78;4.88;;;;;;;17.33;82.65;96942.44;5016692;28;20171;-83
2023/08/02 10:05:07;;;;;;;8.48;5.25;;;;;;;17.57;80.38;96937.84;5029602;28;20039;-83
2023/08/02 10:07:38;;;;;;;7.10;4.20;;;;;;;17.50;80.55;96932.25;5025487;28;20025;-83
2023/08/02 10:10:06;;;;;;;6.90;3.67;;;;;;;17.62;80.29;96926.84;5030524;28;20496;-82
2023/08/02 10:12:35;;;;;;;4.15;3.75;;;;;;;17.71;79.77;96932.88;5012046;28;20409;-83
2023/08/02 10:15:02;;;;;;;4.80;3.63;;;;;;;17.80;79.28;96936.22;5034044;28;20041;-83
2023/08/02 10:17:29;;;;;;;5.05;2.80;;;;;;;17.77;80.54;96946.91;5032957;28;20030;-83
2023/08/02 10:19:55;;;;;;;6.57;3.70;;;;;;;17.54;80.24;96925.03;5031334;28;20504;-83
2023/08/02 10:22:21;;;;;;;6.43;3.45;;;;;;;17.62;79.97;96924.13;5028144;28;20064;-83
2023/08/02 10:24:47;;;;;;;7.13;3.35;;;;;;;17.52;80.77;96915.69;5032629;28;20371;-83
2023/08/02 10:27:14;;;;;;;4.80;3.45;;;;;;;17.41;80.94;96906.50;5029413;28;20068;-83
2023/08/02 10:29:40;;;;;;;3.78;2.95;;;;;;;17.25;81.41;96898.31;5032143;28;20052;-83
2023/08/02 10:32:18;;;;;;;3.83;3.17;;;;;;;17.19;81.72;96903.13;5014749;28;20030;-82
2023/08/02 10:34:46;;;;;;;2.83;2.55;;;;;;;17.17;81.94;96888.41;5024549;28;20040;-82
2023/08/02 10:37:11;;;;;;;3.05;2.13;;;;;;;17.12;81.66;96894.81;5028020;28;20477;-82
2023/08/02 10:39:46;;;;;;;3.47;2.20;;;;;;;17.36;80.89;96891.34;5032109;28;20059;-83
2023/08/02 10:42:16;;;;;;;2.67;2.40;;;;;;;17.40;80.71;96884.13;5032548;28;20021;-82
2023/08/02 10:44:53;;;;;;;4.47;2.90;;;;;;;17.68;79.47;96895.78;5033878;28;20124;-82
2023/08/02 10:47:25;;;;;;;2.60;2.35;;;;;;;17.52;80.90;96903.00;5031498;28;20064;-83
2023/08/02 10:49:51;;;;;;;3.67;2.80;;;;;;;17.52;80.46;96896.81;5030544;28;20111;-83
2023/08/02 10:52:26;;;;;;;5.10;2.53;;;;;;;17.67;79.63;96880.72;5030522;28;20045;-83
2023/08/02 10:55:11;;;;;;;3.80;2.60;;;;;;;17.41;80.95;96860.66;5031408;28;20025;-83
2023/08/02 10:57:39;;;;;;;3.65;2.50;;;;;;;17.29;81.14;96849.88;5031020;28;20033;-82
2023/08/02 11:00:25;;;;;;;3.13;2.35;;;;;;;17.13;82.03;96839.78;5025192;28;20382;-83
2023/08/02 11:02:52;;;;;;;3.38;2.53;;;;;;;17.45;80.88;96838.03;5026391;28;20025;-83
2023/08/02 11:05:42;;;;;;;4.35;2.53;;;;;;;17.37;81.66;96824.69;5029225;28;20501;-83
2023/08/02 11:08:08;;;;;;;5.15;2.38;;;;;;;17.52;81.22;96840.97;5030361;28;20512;-82
2023/08/02 11:10:46;;;;;;;2.80;2.20;;;;;;;17.31;82.01;96818.75;4996199;28;20029;-83
2023/08/02 11:13:11;;;;;;;4.90;3.05;;;;;;;17.29;82.49;96806.72;5028526;28;20036;-83
2023/08/02 11:15:36;;;;;;;2.85;2.38;;;;;;;17.15;84.66;96799.00;5029302;28;20048;-82
2023/08/02 11:18:03;;;;;;;4.53;3.35;;;;;;;17.40;82.37;96784.34;5011223;28;20041;-83
2023/08/02 11:20:31;;;;;;;2.95;2.40;;;;;;;17.56;81.14;96784.44;5029667;28;20385;-83
2023/08/02 11:22:57;;;;;;;5.10;2.33;;;;;;;17.60;81.00;96785.31;5046839;28;20393;-82
2023/08/02 11:25:23;;;;;;;2.20;2.00;;;;;;;17.67;81.51;96774.72;5030542;28;20037;-83
2023/08/02 11:28:00;;;;;;;2.97;2.50;;;;;;;17.68;80.55;96765.47;5029894;28;20068;-83
2023/08/02 11:30:26;;;;;;;2.83;2.30;;;;;;;17.51;82.74;96777.38;5015085;28;20119;-83